首页
METAR-TAF:

METAR-TAF

机场 :

卡亚尼机场

卡亚尼, 芬兰

纬度: 64-17N, 经度: 027-41E, 海拔: 143米

当前天气观测

该预报发布于13分钟前的21:50 UTC
风速2节,风向多变
温度 -19°C
湿度 84%
气压 1003 hPa
能见度10公里或以上
1500米以下无云,无积雨云

METAR: EFKI 272150Z AUTO VRB02KT CAVOK M19/M21 Q1003

时间: 00:03 (22:03 UTC)

预报

该预报发布于4小时和39分钟前的17:24 UTC
预报有效从27日的 18点(UTC)到 27日的 22点(UTC)
风速4节,风向东南
能见度10公里或以上
1500米以下无云,无积雨云

TAF: EFKI 271724Z 2718/2722 13004KT CAVOK

超过4000个机场的气象观测和天气预报(METAR&TAF报告)。

可查询的气象台以黄色和红色小点在地图上表示。

将鼠标移到小点上方,可查看气象台名称。

然后点击查看天气观测和预报。

如需切换地图:点击带黑十字的绿色按钮放大地图;点击带横线的绿色按钮缩小地图;或者点击绿色箭头查看邻近地区的地图。


METAR-TAF: